Time;durP1;ratioP1;P1;durP2;ratioP2;P2;SDS_P1;SDS_P2;PMS_P1;PMS_P2;Temp;Humidity;BMP_temperature;BMP_pressure;BME280_temperature;BME280_humidity;BME280_pressure;Samples;Min_cycle;Max_cycle;Signal;HPM_P1;HPM_P2
2022/04/05 00:00:24;;;;;;;16.95;9.93;;;;;;;;;;4987521;28;20519;-57
2022/04/05 00:02:50;;;;;;;17.98;10.23;;;;;;;;;;4998479;28;20042;-58
2022/04/05 00:05:15;;;;;;;18.70;9.82;;;;;;;;;;5005522;28;20030;-57
2022/04/05 00:07:41;;;;;;;18.55;10.07;;;;;;;;;;4998147;28;20134;-58
2022/04/05 00:10:06;;;;;;;20.60;9.93;;;;;;;;;;5009116;28;20034;-58
2022/04/05 00:12:32;;;;;;;21.08;10.93;;;;;;;;;;5005846;28;20037;-58
2022/04/05 00:14:57;;;;;;;18.45;9.95;;;;;;;;;;5003667;28;20070;-58
2022/04/05 00:17:23;;;;;;;17.30;9.63;;;;;;;;;;4999906;28;20076;-57
2022/04/05 00:19:48;;;;;;;17.25;10.73;;;;;;;;;;5004404;28;20029;-57
2022/04/05 00:22:13;;;;;;;20.98;10.63;;;;;;;;;;5001753;28;20057;-57
2022/04/05 00:24:39;;;;;;;18.95;9.57;;;;;;;;;;5001753;28;20034;-57
2022/04/05 00:27:04;;;;;;;17.67;9.55;;;;;;;;;;5008722;28;20026;-57
2022/04/05 00:29:29;;;;;;;20.27;9.60;;;;;;;;;;5003296;28;20025;-58
2022/04/05 00:31:55;;;;;;;18.65;9.43;;;;;;;;;;5005898;28;20060;-58
2022/04/05 00:34:25;;;;;;;18.90;9.13;;;;;;;;;;5000063;28;20060;-58
2022/04/05 00:36:51;;;;;;;16.17;9.10;;;;;;;;;;5001261;28;20061;-59
2022/04/05 00:39:17;;;;;;;17.65;9.60;;;;;;;;;;5003448;28;20026;-59
2022/04/05 00:41:42;;;;;;;21.10;9.55;;;;;;;;;;5000359;28;20017;-59
2022/04/05 00:44:08;;;;;;;17.58;9.35;;;;;;;;;;4999006;28;20049;-58
2022/04/05 00:46:33;;;;;;;15.13;9.02;;;;;;;;;;4998238;28;20072;-58
2022/04/05 00:49:01;;;;;;;19.67;9.10;;;;;;;;;;5003485;28;20389;-57
2022/04/05 00:51:26;;;;;;;18.65;10.07;;;;;;;;;;5002570;28;20025;-59
2022/04/05 00:53:55;;;;;;;17.10;8.82;;;;;;;;;;4999773;28;20030;-59
2022/04/05 00:56:22;;;;;;;20.35;9.43;;;;;;;;;;5002754;28;20034;-59
2022/04/05 00:58:50;;;;;;;16.92;9.65;;;;;;;;;;4999198;28;20525;-59
2022/04/05 01:01:18;;;;;;;18.23;9.43;;;;;;;;;;5005912;28;20030;-59
2022/04/05 01:03:51;;;;;;;17.42;9.38;;;;;;;;;;5001459;28;20108;-59
2022/04/05 01:06:18;;;;;;;20.67;10.05;;;;;;;;;;4994666;28;20026;-58
2022/04/05 01:08:48;;;;;;;16.60;9.70;;;;;;;;;;5005654;28;20125;-59
2022/04/05 01:11:14;;;;;;;17.38;8.93;;;;;;;;;;5006719;28;20104;-59
2022/04/05 01:13:40;;;;;;;17.30;9.80;;;;;;;;;;5003859;28;20205;-58
2022/04/05 01:16:06;;;;;;;18.55;9.27;;;;;;;;;;4998302;28;20100;-58
2022/04/05 01:18:33;;;;;;;16.17;9.38;;;;;;;;;;5002258;28;20454;-59
2022/04/05 01:20:59;;;;;;;17.33;9.63;;;;;;;;;;5001080;28;20026;-59
2022/04/05 01:23:24;;;;;;;17.83;9.20;;;;;;;;;;4991204;28;20097;-58
2022/04/05 01:25:51;;;;;;;17.67;9.73;;;;;;;;;;5008848;28;20113;-58
2022/04/05 01:28:17;;;;;;;18.42;9.88;;;;;;;;;;5000823;28;20038;-59
2022/04/05 01:30:43;;;;;;;18.90;9.68;;;;;;;;;;5002484;28;20029;-59
2022/04/05 01:33:08;;;;;;;19.80;9.80;;;;;;;;;;5002514;28;20117;-58
2022/04/05 01:35:37;;;;;;;17.38;8.80;;;;;;;;;;5005249;28;20032;-59
2022/04/05 01:38:03;;;;;;;17.95;9.30;;;;;;;;;;5002253;28;20029;-59
2022/04/05 01:40:29;;;;;;;16.92;10.00;;;;;;;;;;4997178;28;20037;-59
2022/04/05 01:42:55;;;;;;;19.05;9.70;;;;;;;;;;4997890;28;20025;-58
2022/04/05 01:45:21;;;;;;;18.60;9.20;;;;;;;;;;5001337;28;20527;-59
2022/04/05 01:47:47;;;;;;;18.58;9.77;;;;;;;;;;4999515;28;20022;-59
2022/04/05 01:50:12;;;;;;;16.85;9.02;;;;;;;;;;5001461;28;20045;-59
2022/04/05 01:52:38;;;;;;;17.65;9.20;;;;;;;;;;5000625;28;20026;-59
2022/04/05 01:55:06;;;;;;;15.07;9.02;;;;;;;;;;4999676;28;20112;-58
2022/04/05 01:57:31;;;;;;;16.58;9.73;;;;;;;;;;5001000;28;20084;-57
2022/04/05 01:59:57;;;;;;;18.40;9.90;;;;;;;;;;4994495;28;20026;-58
2022/04/05 02:02:22;;;;;;;17.35;9.60;;;;;;;;;;4998559;28;20042;-59
2022/04/05 02:04:47;;;;;;;22.70;10.68;;;;;;;;;;5004444;28;20503;-59
2022/04/05 02:07:18;;;;;;;17.23;8.93;;;;;;;;;;5002318;28;20124;-59
2022/04/05 02:09:47;;;;;;;15.57;8.85;;;;;;;;;;4998614;28;20030;-59
2022/04/05 02:12:12;;;;;;;16.55;9.57;;;;;;;;;;5000743;28;20103;-59
2022/04/05 02:14:38;;;;;;;16.73;9.45;;;;;;;;;;5001545;28;20486;-58
2022/04/05 02:17:07;;;;;;;17.23;9.57;;;;;;;;;;5004489;28;20453;-59
2022/04/05 02:19:34;;;;;;;20.33;9.88;;;;;;;;;;5003538;28;20041;-58
2022/04/05 02:22:00;;;;;;;17.35;10.18;;;;;;;;;;4996964;28;20403;-58
2022/04/05 02:24:25;;;;;;;19.10;9.85;;;;;;;;;;4993211;28;20034;-59
2022/04/05 02:26:50;;;;;;;17.15;10.02;;;;;;;;;;5005378;28;20069;-59
2022/04/05 02:29:16;;;;;;;17.75;9.63;;;;;;;;;;5003145;28;20029;-58
2022/04/05 02:31:41;;;;;;;20.63;9.98;;;;;;;;;;5000545;28;20524;-59
2022/04/05 02:34:08;;;;;;;22.25;9.95;;;;;;;;;;5004909;28;20372;-59
2022/04/05 02:36:35;;;;;;;19.50;10.45;;;;;;;;;;4992707;28;20030;-58
2022/04/05 02:39:00;;;;;;;17.13;9.88;;;;;;;;;;5000032;28;20034;-59
2022/04/05 02:41:27;;;;;;;20.42;10.20;;;;;;;;;;5004626;28;20025;-59
2022/04/05 02:43:52;;;;;;;19.77;10.70;;;;;;;;;;5000471;28;20037;-58
2022/04/05 02:46:18;;;;;;;18.80;9.98;;;;;;;;;;5002931;28;20400;-58
2022/04/05 02:48:45;;;;;;;19.30;10.38;;;;;;;;;;5002090;28;20484;-58
2022/04/05 02:51:14;;;;;;;18.75;10.55;;;;;;;;;;5001818;28;20033;-59
2022/04/05 02:53:40;;;;;;;17.30;9.57;;;;;;;;;;4998017;28;20021;-58
2022/04/05 02:56:07;;;;;;;19.10;10.27;;;;;;;;;;4999751;28;20029;-58
2022/04/05 02:58:36;;;;;;;18.35;9.45;;;;;;;;;;5002502;28;20030;-59
2022/04/05 03:01:03;;;;;;;18.30;9.75;;;;;;;;;;4995585;28;20029;-58
2022/04/05 03:03:28;;;;;;;21.73;10.77;;;;;;;;;;5004412;28;20371;-58
2022/04/05 03:05:53;;;;;;;17.63;10.15;;;;;;;;;;5003997;28;20416;-58
2022/04/05 03:08:19;;;;;;;18.27;9.98;;;;;;;;;;5006841;28;20072;-58
2022/04/05 03:10:45;;;;;;;19.25;9.00;;;;;;;;;;4997742;28;20037;-58
2022/04/05 03:13:11;;;;;;;17.23;10.18;;;;;;;;;;5006068;28;20077;-58
2022/04/05 03:15:37;;;;;;;17.25;9.27;;;;;;;;;;5002482;28;20053;-58
2022/04/05 03:18:02;;;;;;;20.48;10.13;;;;;;;;;;5000928;28;20414;-58
2022/04/05 03:20:28;;;;;;;16.45;9.85;;;;;;;;;;5000850;28;20514;-59
2022/04/05 03:22:55;;;;;;;17.77;10.68;;;;;;;;;;5003038;28;20509;-58
2022/04/05 03:25:22;;;;;;;17.85;9.98;;;;;;;;;;5002031;28;20026;-59
2022/04/05 03:27:48;;;;;;;20.10;10.27;;;;;;;;;;4998511;28;20044;-58
2022/04/05 03:30:15;;;;;;;19.40;10.52;;;;;;;;;;5001640;28;20033;-58
2022/04/05 03:32:41;;;;;;;17.25;9.40;;;;;;;;;;5001243;28;20030;-58
2022/04/05 03:35:07;;;;;;;17.58;9.98;;;;;;;;;;4999357;28;20049;-58
2022/04/05 03:37:33;;;;;;;16.23;9.40;;;;;;;;;;5003111;28;20029;-58
2022/04/05 03:39:59;;;;;;;18.70;10.45;;;;;;;;;;5004602;28;20112;-58
2022/04/05 03:42:25;;;;;;;17.10;10.30;;;;;;;;;;5000688;28;20053;-58
2022/04/05 03:44:50;;;;;;;18.98;10.13;;;;;;;;;;5003712;28;20479;-57
2022/04/05 03:47:16;;;;;;;21.02;10.32;;;;;;;;;;5005629;28;20026;-57
2022/04/05 03:49:42;;;;;;;22.00;11.45;;;;;;;;;;5005182;28;20040;-57
2022/04/05 03:52:08;;;;;;;18.25;10.15;;;;;;;;;;5002896;28;20029;-58
2022/04/05 03:54:33;;;;;;;16.45;9.60;;;;;;;;;;4999741;28;20191;-58
2022/04/05 03:56:59;;;;;;;17.17;9.65;;;;;;;;;;4996552;28;20030;-59
2022/04/05 03:59:24;;;;;;;16.08;9.65;;;;;;;;;;5005500;28;20038;-58
2022/04/05 04:01:50;;;;;;;19.65;9.50;;;;;;;;;;5003019;28;20121;-58
2022/04/05 04:04:15;;;;;;;18.83;10.05;;;;;;;;;;5003551;28;20419;-58
2022/04/05 04:06:41;;;;;;;19.45;10.13;;;;;;;;;;5003421;28;20030;-59
2022/04/05 04:09:06;;;;;;;19.08;10.55;;;;;;;;;;5008521;28;20049;-58
2022/04/05 04:11:31;;;;;;;21.63;9.82;;;;;;;;;;5006058;28;20121;-58
2022/04/05 04:13:58;;;;;;;17.20;10.55;;;;;;;;;;5007933;28;20026;-58
2022/04/05 04:16:24;;;;;;;19.65;9.85;;;;;;;;;;5007798;28;20563;-58
2022/04/05 04:18:49;;;;;;;18.75;10.05;;;;;;;;;;5002305;28;20212;-59
2022/04/05 04:21:15;;;;;;;20.02;10.10;;;;;;;;;;5003306;28;20088;-59
2022/04/05 04:23:40;;;;;;;18.17;9.55;;;;;;;;;;4999519;28;20030;-59
2022/04/05 04:26:06;;;;;;;18.02;10.15;;;;;;;;;;5001351;28;20041;-59
2022/04/05 04:28:31;;;;;;;19.85;10.13;;;;;;;;;;5009104;28;20029;-59
2022/04/05 04:30:57;;;;;;;21.27;10.52;;;;;;;;;;5008116;28;20030;-60
2022/04/05 04:33:23;;;;;;;17.77;9.43;;;;;;;;;;5006312;28;20026;-59
2022/04/05 04:35:49;;;;;;;15.55;8.60;;;;;;;;;;5003874;28;20029;-59
2022/04/05 04:38:15;;;;;;;18.45;10.52;;;;;;;;;;5001734;28;20057;-59
2022/04/05 04:40:45;;;;;;;19.45;10.88;;;;;;;;;;5000983;28;20112;-60
2022/04/05 04:43:11;;;;;;;21.67;10.40;;;;;;;;;;5003347;28;20021;-60
2022/04/05 04:45:36;;;;;;;21.63;9.55;;;;;;;;;;5000713;28;20432;-60
2022/04/05 04:48:02;;;;;;;19.63;9.70;;;;;;;;;;5002770;28;20038;-59
2022/04/05 04:50:27;;;;;;;15.05;9.07;;;;;;;;;;5000009;28;20106;-59
2022/04/05 04:52:52;;;;;;;18.13;9.82;;;;;;;;;;5006324;28;20024;-59
2022/04/05 04:55:18;;;;;;;20.83;10.15;;;;;;;;;;4999492;28;20089;-59
2022/04/05 04:57:43;;;;;;;20.35;10.75;;;;;;;;;;5000811;28;20038;-59
2022/04/05 05:00:11;;;;;;;16.13;9.30;;;;;;;;;;5001635;28;20033;-59
2022/04/05 05:02:50;;;;;;;18.00;9.85;;;;;;;;;;5001432;28;20110;-62
2022/04/05 05:05:20;;;;;;;22.40;10.43;;;;;;;;;;5002320;28;20506;-62
2022/04/05 05:07:47;;;;;;;20.13;9.80;;;;;;;;;;5001298;28;20045;-62
2022/04/05 05:10:17;;;;;;;16.40;9.82;;;;;;;;;;4998094;28;20101;-62
2022/04/05 05:12:43;;;;;;;17.35;9.90;;;;;;;;;;5001527;28;20400;-62
2022/04/05 05:15:10;;;;;;;19.42;10.27;;;;;;;;;;4998369;28;20025;-62
2022/04/05 05:17:36;;;;;;;17.40;9.63;;;;;;;;;;5001111;28;20504;-62
2022/04/05 05:20:03;;;;;;;20.42;9.40;;;;;;;;;;5003199;28;20071;-62
2022/04/05 05:22:28;;;;;;;17.35;9.35;;;;;;;;;;5006732;28;20152;-62
2022/04/05 05:24:54;;;;;;;18.77;9.60;;;;;;;;;;5004048;28;20432;-65
2022/04/05 05:27:19;;;;;;;19.42;9.93;;;;;;;;;;5004848;28;20029;-62
2022/04/05 05:29:45;;;;;;;19.75;10.77;;;;;;;;;;5007571;28;20021;-62
2022/04/05 05:32:10;;;;;;;16.52;9.02;;;;;;;;;;5005512;28;20022;-62
2022/04/05 05:34:36;;;;;;;21.08;9.70;;;;;;;;;;5004517;28;20040;-63
2022/04/05 05:37:02;;;;;;;21.00;9.27;;;;;;;;;;5004006;28;20026;-62
2022/04/05 05:39:28;;;;;;;17.55;9.10;;;;;;;;;;4999454;28;20096;-62
2022/04/05 05:41:54;;;;;;;18.05;9.43;;;;;;;;;;4991866;28;20044;-62
2022/04/05 05:44:20;;;;;;;17.17;8.73;;;;;;;;;;4996047;28;20026;-56
2022/04/05 05:46:45;;;;;;;21.02;9.15;;;;;;;;;;4997832;28;20385;-64
2022/04/05 05:49:11;;;;;;;16.60;8.60;;;;;;;;;;4999045;28;20018;-62
2022/04/05 05:51:36;;;;;;;16.13;9.32;;;;;;;;;;4999604;28;20022;-62
2022/04/05 05:54:02;;;;;;;17.23;8.65;;;;;;;;;;5002016;28;20037;-62
2022/04/05 05:56:27;;;;;;;16.95;9.52;;;;;;;;;;4998857;28;20033;-65
2022/04/05 05:58:52;;;;;;;17.75;9.10;;;;;;;;;;4994371;28;20034;-62
2022/04/05 06:01:18;;;;;;;17.13;9.50;;;;;;;;;;4999748;28;20619;-62
2022/04/05 06:03:43;;;;;;;15.18;8.68;;;;;;;;;;4986994;28;21370;-63
2022/04/05 06:06:09;;;;;;;15.45;8.50;;;;;;;;;;5002912;28;20442;-61
2022/04/05 06:08:34;;;;;;;17.75;8.73;;;;;;;;;;5001130;28;20116;-62
2022/04/05 06:11:00;;;;;;;17.85;8.55;;;;;;;;;;4998524;28;20038;-62
2022/04/05 06:13:25;;;;;;;17.77;9.55;;;;;;;;;;5001255;28;20059;-62
2022/04/05 06:15:51;;;;;;;20.17;10.25;;;;;;;;;;5004108;28;20031;-64
2022/04/05 06:18:16;;;;;;;16.80;9.23;;;;;;;;;;4995964;28;20030;-62
2022/04/05 06:20:41;;;;;;;16.15;8.30;;;;;;;;;;5000432;28;20072;-62
2022/04/05 06:23:07;;;;;;;15.75;8.65;;;;;;;;;;5004419;28;20185;-62
2022/04/05 06:25:37;;;;;;;15.85;8.30;;;;;;;;;;5000666;28;20105;-62
2022/04/05 06:28:07;;;;;;;15.82;7.95;;;;;;;;;;4996601;28;20025;-62
2022/04/05 06:30:35;;;;;;;18.58;8.05;;;;;;;;;;4999934;28;20065;-61
2022/04/05 06:33:04;;;;;;;18.77;7.82;;;;;;;;;;5000725;28;20021;-62
2022/04/05 06:35:29;;;;;;;11.35;7.10;;;;;;;;;;4990190;28;20038;-62
2022/04/05 06:37:54;;;;;;;14.07;7.50;;;;;;;;;;5006837;28;20030;-63
2022/04/05 06:40:20;;;;;;;15.00;8.02;;;;;;;;;;4995932;28;20030;-62
2022/04/05 06:42:45;;;;;;;14.52;8.10;;;;;;;;;;5003688;28;20088;-62
2022/04/05 06:45:17;;;;;;;13.38;7.50;;;;;;;;;;4995205;28;20054;-62
2022/04/05 06:47:43;;;;;;;12.63;6.80;;;;;;;;;;5001985;28;20034;-60
2022/04/05 06:50:10;;;;;;;16.00;7.90;;;;;;;;;;4988544;28;20033;-59
2022/04/05 06:52:37;;;;;;;13.70;7.90;;;;;;;;;;4990661;28;20026;-60
2022/04/05 06:55:04;;;;;;;13.45;7.65;;;;;;;;;;4998141;28;20053;-60
2022/04/05 06:57:30;;;;;;;14.32;7.97;;;;;;;;;;4995692;28;20503;-62
2022/04/05 06:59:55;;;;;;;13.15;7.25;;;;;;;;;;4994134;28;20124;-62
2022/04/05 07:02:22;;;;;;;14.40;7.30;;;;;;;;;;4995152;28;20077;-59
2022/04/05 07:04:47;;;;;;;13.88;7.82;;;;;;;;;;4990755;28;20113;-60
2022/04/05 07:07:13;;;;;;;15.00;8.35;;;;;;;;;;5000514;28;20113;-60
2022/04/05 07:09:38;;;;;;;16.95;8.15;;;;;;;;;;4992575;28;20139;-60
2022/04/05 07:12:07;;;;;;;11.40;6.90;;;;;;;;;;5000457;28;20436;-61
2022/04/05 07:14:33;;;;;;;17.15;7.20;;;;;;;;;;5000267;28;20404;-61
2022/04/05 07:16:59;;;;;;;11.30;6.63;;;;;;;;;;4999178;28;20469;-61
2022/04/05 07:19:25;;;;;;;13.63;7.68;;;;;;;;;;4998678;28;20116;-61
2022/04/05 07:21:50;;;;;;;15.68;7.82;;;;;;;;;;5001542;28;20596;-61
2022/04/05 07:24:15;;;;;;;14.45;8.40;;;;;;;;;;4995307;28;20534;-62
2022/04/05 07:26:41;;;;;;;16.48;8.32;;;;;;;;;;4994097;28;20026;-61
2022/04/05 07:29:06;;;;;;;16.52;8.73;;;;;;;;;;4996734;28;20018;-61
2022/04/05 07:31:32;;;;;;;20.08;9.75;;;;;;;;;;5002048;28;20068;-61
2022/04/05 07:33:57;;;;;;;15.52;7.32;;;;;;;;;;5007130;28;20403;-62
2022/04/05 07:36:23;;;;;;;11.93;7.05;;;;;;;;;;5001168;28;20026;-61
2022/04/05 07:38:48;;;;;;;12.48;6.60;;;;;;;;;;4997572;28;20034;-61
2022/04/05 07:41:13;;;;;;;12.43;6.82;;;;;;;;;;5004716;28;20132;-61
2022/04/05 07:43:39;;;;;;;14.93;7.43;;;;;;;;;;5001069;28;20399;-62
2022/04/05 07:46:04;;;;;;;12.43;7.05;;;;;;;;;;4991893;28;20030;-60
2022/04/05 07:48:30;;;;;;;13.10;6.63;;;;;;;;;;4994261;28;20096;-61
2022/04/05 07:50:56;;;;;;;15.70;7.85;;;;;;;;;;4994652;28;20022;-61
2022/04/05 07:53:22;;;;;;;12.30;7.22;;;;;;;;;;4997990;28;20167;-60
2022/04/05 07:55:47;;;;;;;11.77;6.60;;;;;;;;;;5005391;28;20033;-61
2022/04/05 07:58:13;;;;;;;14.65;7.38;;;;;;;;;;5001949;28;20124;-61
2022/04/05 08:00:38;;;;;;;16.85;7.93;;;;;;;;;;4993215;28;20619;-61
2022/04/05 08:03:04;;;;;;;11.75;7.03;;;;;;;;;;5002387;28;20022;-61
2022/04/05 08:05:30;;;;;;;16.23;7.07;;;;;;;;;;5007868;28;20458;-61
2022/04/05 08:07:55;;;;;;;16.38;7.47;;;;;;;;;;4999390;28;20512;-60
2022/04/05 08:10:21;;;;;;;16.15;8.00;;;;;;;;;;4995123;28;20466;-60
2022/04/05 08:12:49;;;;;;;12.95;7.22;;;;;;;;;;5001770;28;20030;-60
2022/04/05 08:15:19;;;;;;;34.70;13.35;;;;;;;;;;5005923;28;20121;-61
2022/04/05 08:17:46;;;;;;;14.32;8.70;;;;;;;;;;5004460;28;20033;-61
2022/04/05 08:20:13;;;;;;;42.05;14.63;;;;;;;;;;5000625;28;20034;-61
2022/04/05 08:22:39;;;;;;;14.95;8.55;;;;;;;;;;5001660;28;20500;-61
2022/04/05 08:25:06;;;;;;;16.00;8.15;;;;;;;;;;4992115;28;20408;-62
2022/04/05 08:27:33;;;;;;;17.50;8.20;;;;;;;;;;4992877;28;20037;-62
2022/04/05 08:29:58;;;;;;;24.67;10.60;;;;;;;;;;5001833;28;20115;-60
2022/04/05 08:32:24;;;;;;;53.75;18.85;;;;;;;;;;5000020;28;20506;-61
2022/04/05 08:34:49;;;;;;;21.63;10.20;;;;;;;;;;5004296;28;20457;-61
2022/04/05 08:37:14;;;;;;;24.58;10.82;;;;;;;;;;5003232;28;20026;-62
2022/04/05 08:39:41;;;;;;;17.42;8.35;;;;;;;;;;4995930;28;20496;-61
2022/04/05 08:42:07;;;;;;;15.27;7.35;;;;;;;;;;4996991;28;20034;-61
2022/04/05 08:44:33;;;;;;;12.50;6.82;;;;;;;;;;4995912;28;20022;-61
2022/04/05 08:47:03;;;;;;;12.35;6.95;;;;;;;;;;4993184;28;20487;-61
2022/04/05 08:49:31;;;;;;;11.27;6.93;;;;;;;;;;4999858;28;20029;-59
2022/04/05 08:51:56;;;;;;;11.35;6.80;;;;;;;;;;4984222;28;20030;-61
2022/04/05 08:54:22;;;;;;;11.18;6.70;;;;;;;;;;5001204;28;20387;-61
2022/04/05 08:56:50;;;;;;;17.75;7.68;;;;;;;;;;5000210;28;20445;-62
2022/04/05 08:59:15;;;;;;;13.52;7.30;;;;;;;;;;4996240;28;20030;-61
2022/04/05 09:01:41;;;;;;;9.48;6.40;;;;;;;;;;5002749;28;20033;-61
2022/04/05 09:04:06;;;;;;;11.65;7.18;;;;;;;;;;5007738;28;20118;-62
2022/04/05 09:06:34;;;;;;;12.43;6.85;;;;;;;;;;5008004;28;20076;-61
2022/04/05 09:09:11;;;;;;;12.05;7.25;;;;;;;;;;5005183;28;20045;-61
2022/04/05 09:11:45;;;;;;;13.07;6.93;;;;;;;;;;5003752;28;20022;-64
2022/04/05 09:14:11;;;;;;;13.10;7.43;;;;;;;;;;4993869;28;20037;-62
2022/04/05 09:16:37;;;;;;;13.48;7.20;;;;;;;;;;5007357;28;20033;-62
2022/04/05 09:19:13;;;;;;;13.02;7.38;;;;;;;;;;5001259;28;20408;-61
2022/04/05 09:21:53;;;;;;;17.55;8.32;;;;;;;;;;5003995;28;20614;-62
2022/04/05 09:24:19;;;;;;;15.82;7.53;;;;;;;;;;5003574;28;20036;-62
2022/04/05 09:26:45;;;;;;;15.45;7.72;;;;;;;;;;5002796;28;20108;-62
2022/04/05 09:29:11;;;;;;;14.15;7.68;;;;;;;;;;5003344;28;20168;-62
2022/04/05 09:31:48;;;;;;;12.38;6.78;;;;;;;;;;5002271;28;20037;-62
2022/04/05 09:34:19;;;;;;;11.32;6.65;;;;;;;;;;4996078;28;20026;-62
2022/04/05 09:36:50;;;;;;;11.88;6.90;;;;;;;;;;5000649;28;20037;-62
2022/04/05 09:39:17;;;;;;;13.73;7.35;;;;;;;;;;4994125;28;20038;-61
2022/04/05 09:41:44;;;;;;;11.80;7.28;;;;;;;;;;4996869;28;20226;-60
2022/04/05 09:44:10;;;;;;;16.73;10.02;;;;;;;;;;4998126;28;20029;-61
2022/04/05 09:46:36;;;;;;;13.88;8.02;;;;;;;;;;4997505;28;20109;-61
2022/04/05 09:49:01;;;;;;;12.75;7.35;;;;;;;;;;4996405;28;20550;-61
2022/04/05 09:51:27;;;;;;;10.52;6.85;;;;;;;;;;5001799;28;20105;-59
2022/04/05 09:53:57;;;;;;;15.65;8.13;;;;;;;;;;5003962;28;20029;-61
2022/04/05 09:56:38;;;;;;;11.30;6.65;;;;;;;;;;4993557;28;20455;-60
2022/04/05 09:59:18;;;;;;;13.27;6.75;;;;;;;;;;5004245;28;20382;-61
2022/04/05 10:01:45;;;;;;;;;;;;;;;;;;5006710;28;20061;-63
2022/04/05 10:04:18;;;;;;;12.85;7.05;;;;;;;;;;4986823;28;20387;-62
2022/04/05 10:06:48;;;;;;;13.13;7.53;;;;;;;;;;5001483;28;20108;-61
2022/04/05 10:09:18;;;;;;;11.40;7.28;;;;;;;;;;5004392;28;20441;-60
2022/04/05 10:11:45;;;;;;;12.88;7.10;;;;;;;;;;4998337;28;20034;-60
2022/04/05 10:14:13;;;;;;;10.55;6.93;;;;;;;;;;5003607;28;20107;-60
2022/04/05 10:16:39;;;;;;;13.13;7.57;;;;;;;;;;4999449;28;20084;-61
2022/04/05 10:19:07;;;;;;;12.63;7.68;;;;;;;;;;5001077;28;20367;-60
2022/04/05 10:21:35;;;;;;;13.45;7.78;;;;;;;;;;4994272;28;20081;-59
2022/04/05 10:24:03;;;;;;;12.38;7.60;;;;;;;;;;4996966;28;20031;-61
2022/04/05 10:26:31;;;;;;;11.48;8.48;;;;;;;;;;4998087;28;20030;-59
2022/04/05 10:28:59;;;;;;;12.52;7.68;;;;;;;;;;4995292;28;20124;-60
2022/04/05 10:31:41;;;;;;;15.93;8.20;;;;;;;;;;4995597;28;20049;-60
2022/04/05 10:34:21;;;;;;;14.68;8.07;;;;;;;;;;4998924;28;20124;-61
2022/04/05 10:37:09;;;;;;;14.20;7.97;;;;;;;;;;4995338;28;20218;-61
2022/04/05 10:39:36;;;;;;;14.18;7.90;;;;;;;;;;4994806;28;20117;-61
2022/04/05 10:42:15;;;;;;;12.27;7.57;;;;;;;;;;4998740;28;20602;-61
2022/04/05 10:44:51;;;;;;;;;;;;;;;;;;4999672;28;20034;-60
2022/04/05 10:47:17;;;;;;;11.93;7.43;;;;;;;;;;4989046;28;20042;-61
2022/04/05 10:49:50;;;;;;;16.15;8.30;;;;;;;;;;4991064;28;20796;-61
2022/04/05 10:52:17;;;;;;;13.98;8.02;;;;;;;;;;4991886;28;20479;-60
2022/04/05 10:54:49;;;;;;;11.55;7.95;;;;;;;;;;4993904;28;20503;-60
2022/04/05 10:57:31;;;;;;;23.33;9.68;;;;;;;;;;4996101;28;20034;-62
2022/04/05 11:00:11;;;;;;;25.25;9.98;;;;;;;;;;5002653;28;20156;-60
2022/04/05 11:02:41;;;;;;;13.60;7.50;;;;;;;;;;5002746;28;20034;-60
2022/04/05 11:05:18;;;;;;;;;;;;;;;;;;5000341;28;20042;-60
2022/04/05 11:08:30;;;;;;;11.80;7.22;;;;;;;;;;4996730;28;20434;-61
2022/04/05 11:11:00;;;;;;;11.07;6.88;;;;;;;;;;4994223;28;20391;-61
2022/04/05 11:13:39;;;;;;;11.88;7.30;;;;;;;;;;4999210;28;20027;-60
2022/04/05 11:16:09;;;;;;;11.87;7.33;;;;;;;;;;5000081;28;20034;-61
2022/04/05 11:18:34;;;;;;;14.63;8.43;;;;;;;;;;4998846;28;20121;-60
2022/04/05 11:21:01;;;;;;;10.85;6.80;;;;;;;;;;4997433;28;20113;-60
2022/04/05 11:23:43;;;;;;;12.57;7.30;;;;;;;;;;5002821;28;20272;-60
2022/04/05 11:26:41;;;;;;;10.80;6.90;;;;;;;;;;5001442;28;20251;-61
2022/04/05 11:29:26;;;;;;;10.63;7.00;;;;;;;;;;4971456;28;20047;-60
2022/04/05 11:32:10;;;;;;;9.50;6.63;;;;;;;;;;4998324;28;20046;-61
2022/04/05 11:34:46;;;;;;;12.27;6.50;;;;;;;;;;4998665;28;20090;-61
2022/04/05 11:37:11;;;;;;;11.93;7.30;;;;;;;;;;4998237;28;20112;-61
2022/04/05 11:39:42;;;;;;;14.40;7.50;;;;;;;;;;4996184;28;20146;-60
2022/04/05 11:42:08;;;;;;;13.25;7.65;;;;;;;;;;5000939;28;20025;-61
2022/04/05 11:44:34;;;;;;;18.00;9.05;;;;;;;;;;4998207;28;20030;-62
2022/04/05 11:47:00;;;;;;;16.50;8.93;;;;;;;;;;4990354;28;20105;-64
2022/04/05 11:49:26;;;;;;;12.93;7.18;;;;;;;;;;4991675;28;20033;-61
2022/04/05 11:51:52;;;;;;;10.70;7.20;;;;;;;;;;4992400;28;20141;-61
2022/04/05 11:54:27;;;;;;;10.45;6.72;;;;;;;;;;4990506;28;20022;-61
2022/04/05 11:57:02;;;;;;;11.32;6.47;;;;;;;;;;4995640;28;20034;-61
2022/04/05 11:59:28;;;;;;;15.85;6.95;;;;;;;;;;4995554;28;20033;-62
2022/04/05 12:01:54;;;;;;;10.52;6.95;;;;;;;;;;4992025;28;20038;-61
2022/04/05 12:04:22;;;;;;;10.85;6.57;;;;;;;;;;4996604;28;20485;-63
2022/04/05 12:06:52;;;;;;;10.18;6.63;;;;;;;;;;5000015;28;20236;-62
2022/04/05 12:09:18;;;;;;;12.57;6.47;;;;;;;;;;4992049;28;20026;-62
2022/04/05 12:11:49;;;;;;;12.18;6.50;;;;;;;;;;4977337;28;20408;-62
2022/04/05 12:14:20;;;;;;;13.02;7.22;;;;;;;;;;4997350;28;20087;-60
2022/04/05 12:17:00;;;;;;;9.45;6.20;;;;;;;;;;5002653;28;20419;-62
2022/04/05 12:19:32;;;;;;;12.65;8.52;;;;;;;;;;4997277;28;20446;-65
2022/04/05 12:22:05;;;;;;;11.63;7.03;;;;;;;;;;5000304;28;20041;-61
2022/04/05 12:24:32;;;;;;;12.65;6.10;;;;;;;;;;5008329;28;20029;-61
2022/04/05 12:26:59;;;;;;;9.40;6.38;;;;;;;;;;5004123;28;20032;-62
2022/04/05 12:29:25;;;;;;;10.02;6.07;;;;;;;;;;5003580;28;20132;-62
2022/04/05 12:31:51;;;;;;;9.82;6.45;;;;;;;;;;5001637;28;20396;-61
2022/04/05 12:34:18;;;;;;;10.15;7.03;;;;;;;;;;4994173;28;20033;-61
2022/04/05 12:36:43;;;;;;;11.07;6.07;;;;;;;;;;5000900;28;20526;-61
2022/04/05 12:39:21;;;;;;;12.63;7.07;;;;;;;;;;5004495;28;20029;-62
2022/04/05 12:41:49;;;;;;;10.05;5.93;;;;;;;;;;4998953;28;20479;-60
2022/04/05 12:44:17;;;;;;;10.68;6.03;;;;;;;;;;5004548;28;20101;-61
2022/04/05 12:46:54;;;;;;;9.82;5.97;;;;;;;;;;5005059;28;20341;-61
2022/04/05 12:49:26;;;;;;;9.90;5.90;;;;;;;;;;5002712;28;20030;-62
2022/04/05 12:51:52;;;;;;;11.18;6.43;;;;;;;;;;4994002;28;20038;-63
2022/04/05 12:54:33;;;;;;;15.02;7.25;;;;;;;;;;4997058;28;20467;-61
2022/04/05 12:57:16;;;;;;;11.23;6.70;;;;;;;;;;5003019;28;20036;-61
2022/04/05 12:59:42;;;;;;;13.25;7.32;;;;;;;;;;4975560;28;20423;-62
2022/04/05 13:02:19;;;;;;;10.93;6.25;;;;;;;;;;4994932;28;20054;-60
2022/04/05 13:04:44;;;;;;;9.75;6.28;;;;;;;;;;4992328;28;20018;-61
2022/04/05 13:07:10;;;;;;;8.70;6.55;;;;;;;;;;5005111;28;20048;-61
2022/04/05 13:09:36;;;;;;;8.82;6.05;;;;;;;;;;4999444;28;20551;-61
2022/04/05 13:12:10;;;;;;;9.88;6.72;;;;;;;;;;5003981;28;20046;-60
2022/04/05 13:14:36;;;;;;;8.93;5.88;;;;;;;;;;4999302;28;20030;-60
2022/04/05 13:17:02;;;;;;;11.68;7.30;;;;;;;;;;4996098;28;20022;-60
2022/04/05 13:19:28;;;;;;;15.68;7.45;;;;;;;;;;5002158;28;20030;-62
2022/04/05 13:21:55;;;;;;;10.73;6.88;;;;;;;;;;5005812;28;20137;-61
2022/04/05 13:24:39;;;;;;;11.23;6.93;;;;;;;;;;5004187;28;20543;-62
2022/04/05 13:27:05;;;;;;;9.85;5.30;;;;;;;;;;5001841;28;20031;-60
2022/04/05 13:29:31;;;;;;;10.32;5.80;;;;;;;;;;5005483;28;20029;-61
2022/04/05 13:32:01;;;;;;;11.18;6.05;;;;;;;;;;4993076;28;20042;-60
2022/04/05 13:34:29;;;;;;;8.82;5.45;;;;;;;;;;5001595;28;20550;-61
2022/04/05 13:36:55;;;;;;;6.25;4.78;;;;;;;;;;5002702;28;20038;-62
2022/04/05 13:39:22;;;;;;;6.88;4.80;;;;;;;;;;5003722;28;20595;-62
2022/04/05 13:41:48;;;;;;;9.63;5.68;;;;;;;;;;4994981;28;20034;-62
2022/04/05 13:44:13;;;;;;;8.75;4.60;;;;;;;;;;4992181;28;20117;-61
2022/04/05 13:46:39;;;;;;;8.57;5.00;;;;;;;;;;4994059;28;20038;-61
2022/04/05 13:49:10;;;;;;;10.05;4.90;;;;;;;;;;4994410;28;20037;-59
2022/04/05 13:51:37;;;;;;;8.80;5.32;;;;;;;;;;4991919;28;20022;-61
2022/04/05 13:54:04;;;;;;;8.80;5.70;;;;;;;;;;4992531;28;20062;-61
2022/04/05 13:56:33;;;;;;;9.05;5.50;;;;;;;;;;4994542;28;20024;-61
2022/04/05 13:58:59;;;;;;;12.70;6.60;;;;;;;;;;4999901;28;20095;-61
2022/04/05 14:01:24;;;;;;;6.40;4.93;;;;;;;;;;4994779;28;20467;-61
2022/04/05 14:03:51;;;;;;;9.80;5.70;;;;;;;;;;4989947;28;20072;-62
2022/04/05 14:06:16;;;;;;;7.60;5.65;;;;;;;;;;4996348;28;20042;-63
2022/04/05 14:08:43;;;;;;;19.52;7.78;;;;;;;;;;4993317;28;20526;-60
2022/04/05 14:11:09;;;;;;;10.20;6.18;;;;;;;;;;4997527;28;20040;-61
2022/04/05 14:13:34;;;;;;;12.57;7.22;;;;;;;;;;4998979;28;20030;-60
2022/04/05 14:16:00;;;;;;;11.60;6.68;;;;;;;;;;5003193;28;20080;-61
2022/04/05 14:18:25;;;;;;;10.80;5.82;;;;;;;;;;5005300;28;20038;-60
2022/04/05 14:20:51;;;;;;;10.82;5.60;;;;;;;;;;5002712;28;20042;-60
2022/04/05 14:23:16;;;;;;;10.45;5.88;;;;;;;;;;5001713;28;20144;-61
2022/04/05 14:25:42;;;;;;;11.60;6.32;;;;;;;;;;4998585;28;20026;-60
2022/04/05 14:28:08;;;;;;;6.65;5.00;;;;;;;;;;5002678;28;20030;-61
2022/04/05 14:30:35;;;;;;;10.13;6.35;;;;;;;;;;4993179;28;20503;-61
2022/04/05 14:33:00;;;;;;;9.80;5.53;;;;;;;;;;4995311;28;20037;-60